Time,TemperatureF,DewpointF,PressureIn,WindDirection,WindDirectionDegrees,WindSpeedMPH,WindSpeedGustMPH,Humidity,HourlyPrecipIn,Conditions,Clouds,dailyrainin,SoftwareType,DateUTC
2013-06-13 00:00:00,36.0,0.0,29.84,West,259,9.0,12.0,23,-99.99,,,-99.99,,2013-06-13 07:00:00,
2013-06-13 00:08:00,37.0,0.0,29.84,WSW,248,9.0,13.0,24,-99.99,,,-99.99,,2013-06-13 07:08:00,
2013-06-13 00:16:00,36.0,0.0,29.84,WSW,258,8.0,14.0,24,-99.99,,,-99.99,,2013-06-13 07:16:00,
2013-06-13 00:24:00,36.0,0.0,29.84,WSW,258,8.0,14.0,24,-99.99,,,-99.99,,2013-06-13 07:24:00,
2013-06-13 00:32:00,39.0,0.0,29.84,West,259,12.0,16.0,24,-99.99,,,-99.99,,2013-06-13 07:32:00,
2013-06-13 00:40:00,37.0,0.0,29.84,WSW,258,10.0,16.0,26,-99.99,,,-99.99,,2013-06-13 07:40:00,
2013-06-13 00:48:00,37.0,0.0,29.83,West,265,13.0,17.0,24,-99.99,,,-99.99,,2013-06-13 07:48:00,
2013-06-13 00:56:00,39.0,0.0,29.83,WSW,253,12.0,16.0,24,-99.99,,,-99.99,,2013-06-13 07:56:00,
2013-06-13 01:04:00,38.0,0.0,29.84,WSW,251,8.0,17.0,22,-99.99,,,-99.99,,2013-06-13 08:04:00,
2013-06-13 01:12:00,37.0,0.0,29.84,West,261,5.0,15.0,24,-99.99,,,-99.99,,2013-06-13 08:12:00,
2013-06-13 01:20:00,36.0,0.0,29.84,WNW,287,3.0,7.0,25,-99.99,,,-99.99,,2013-06-13 08:20:00,
2013-06-13 01:28:00,37.0,0.0,29.83,NW,319,6.0,9.0,24,-99.99,,,-99.99,,2013-06-13 08:28:00,
2013-06-13 01:36:00,36.0,0.0,29.83,NW,311,6.0,9.0,26,-99.99,,,-99.99,,2013-06-13 08:36:00,
2013-06-13 01:44:00,36.0,0.0,29.83,South,171,2.0,5.0,25,-99.99,,,-99.99,,2013-06-13 08:44:00,
2013-06-13 01:52:00,36.0,0.0,29.83,West,265,7.0,8.0,22,-99.99,,,-99.99,,2013-06-13 08:52:00,
2013-06-13 02:00:00,0.0,0.0,-0.01,North,0,0.0,0.0,0,-99.99,,,-99.99,,2013-06-13 09:00:00,
2013-06-13 02:08:00,36.0,0.0,29.83,SE,136,1.0,5.0,23,-99.99,,,-99.99,,2013-06-13 09:08:00,
2013-06-13 02:16:00,35.0,0.0,29.83,SSE,153,2.0,6.0,24,-99.99,,,-99.99,,2013-06-13 09:16:00,
2013-06-13 02:24:00,35.0,0.0,29.83,SE,135,3.0,6.0,26,-99.99,,,-99.99,,2013-06-13 09:24:00,
2013-06-13 02:32:00,36.0,0.0,29.83,SSE,158,7.0,9.0,24,-99.99,,,-99.99,,2013-06-13 09:32:00,
2013-06-13 02:40:00,36.0,0.0,29.83,South,185,6.0,8.0,23,-99.99,,,-99.99,,2013-06-13 09:40:00,
2013-06-13 02:48:00,35.0,0.0,29.83,WNW,289,8.0,8.0,26,-99.99,,,-99.99,,2013-06-13 09:48:00,
2013-06-13 02:56:00,37.0,0.0,29.83,West,271,13.0,14.0,22,-99.99,,,-99.99,,2013-06-13 09:56:00,
2013-06-13 03:04:00,36.0,0.0,29.83,West,263,7.0,15.0,22,-99.99,,,-99.99,,2013-06-13 10:04:00,
2013-06-13 03:12:00,39.0,0.0,29.83,WNW,289,8.0,13.0,21,-99.99,,,-99.99,,2013-06-13 10:12:00,
2013-06-13 03:20:00,35.0,0.0,29.83,WSW,255,3.0,10.0,24,-99.99,,,-99.99,,2013-06-13 10:20:00,
2013-06-13 03:28:00,40.0,0.0,29.83,WNW,285,13.0,15.0,26,-99.99,,,-99.99,,2013-06-13 10:28:00,
2013-06-13 03:36:00,36.0,0.0,29.83,WNW,295,9.0,18.0,21,-99.99,,,-99.99,,2013-06-13 10:36:00,
2013-06-13 03:44:00,38.0,0.0,29.83,WNW,299,8.0,15.0,21,-99.99,,,-99.99,,2013-06-13 10:44:00,
2013-06-13 03:52:00,36.0,0.0,29.83,WNW,287,14.0,18.0,27,-99.99,,,-99.99,,2013-06-13 10:52:00,
2013-06-13 04:00:00,35.0,0.0,29.83,West,267,12.0,18.0,26,-99.99,,,-99.99,,2013-06-13 11:00:00,
2013-06-13 04:08:00,35.0,0.0,29.84,West,260,10.0,17.0,25,-99.99,,,-99.99,,2013-06-13 11:08:00,
2013-06-13 04:16:00,35.0,0.0,29.84,WSW,248,5.0,15.0,24,-99.99,,,-99.99,,2013-06-13 11:16:00,
2013-06-13 04:24:00,36.0,0.0,29.84,SW,231,5.0,13.0,28,-99.99,,,-99.99,,2013-06-13 11:24:00,
2013-06-13 04:32:00,35.0,0.0,29.84,SW,219,7.0,8.0,27,-99.99,,,-99.99,,2013-06-13 11:32:00,
2013-06-13 04:40:00,35.0,0.0,29.84,WSW,255,9.0,10.0,25,-99.99,,,-99.99,,2013-06-13 11:40:00,
2013-06-13 04:48:00,34.0,0.0,29.84,West,263,7.0,10.0,27,-99.99,,,-99.99,,2013-06-13 11:48:00,
2013-06-13 04:56:00,37.0,0.0,29.85,SW,235,2.0,8.0,26,-99.99,,,-99.99,,2013-06-13 11:56:00,
2013-06-13 05:04:00,34.0,0.0,29.85,SW,235,5.0,10.0,26,-99.99,,,-99.99,,2013-06-13 12:04:00,
2013-06-13 05:08:00,38.0,0.0,29.85,SW,214,8.0,10.0,25,-99.99,,,-99.99,,2013-06-13 12:08:00,
2013-06-13 05:16:00,35.0,0.0,29.85,SSW,213,9.0,10.0,25,-99.99,,,-99.99,,2013-06-13 12:16:00,
2013-06-13 05:24:00,35.0,0.0,29.85,WSW,251,8.0,13.0,27,-99.99,,,-99.99,,2013-06-13 12:24:00,
2013-06-13 05:32:00,34.0,0.0,29.85,WSW,250,12.0,14.0,26,-99.99,,,-99.99,,2013-06-13 12:32:00,
2013-06-13 05:40:00,35.0,0.0,29.86,WSW,247,6.0,14.0,27,-99.99,,,-99.99,,2013-06-13 12:40:00,
2013-06-13 05:48:00,35.0,0.0,29.86,WSW,246,7.0,13.0,26,-99.99,,,-99.99,,2013-06-13 12:48:00,
2013-06-13 05:56:00,34.0,0.0,29.86,SW,229,7.0,12.0,25,-99.99,,,-99.99,,2013-06-13 12:56:00,
2013-06-13 06:04:00,35.0,0.0,29.86,West,269,7.0,13.0,23,-99.99,,,-99.99,,2013-06-13 13:04:00,
2013-06-13 06:12:00,36.0,0.0,29.87,South,186,0.0,14.0,22,-99.99,,,-99.99,,2013-06-13 13:12:00,
2013-06-13 06:20:00,35.0,0.0,29.87,SE,143,3.0,9.0,26,-99.99,,,-99.99,,2013-06-13 13:20:00,
2013-06-13 06:28:00,37.0,0.0,29.88,SW,214,3.0,8.0,23,-99.99,,,-99.99,,2013-06-13 13:28:00,
2013-06-13 06:36:00,37.0,0.0,29.88,SW,228,6.0,8.0,23,-99.99,,,-99.99,,2013-06-13 13:36:00,
2013-06-13 06:44:00,40.0,0.0,29.87,South,183,7.0,9.0,22,-99.99,,,-99.99,,2013-06-13 13:44:00,
2013-06-13 06:52:00,77.0,0.0,29.88,ESE,120,2.0,10.0,25,-99.99,,,-99.99,,2013-06-13 13:52:00,
2013-06-13 07:00:00,78.0,0.0,29.88,SSE,158,6.0,9.0,24,-99.99,,,-99.99,,2013-06-13 14:00:00,
2013-06-13 07:08:00,78.0,0.0,29.88,ENE,71,5.0,7.0,25,-99.99,,,-99.99,,2013-06-13 14:08:00,
2013-06-13 07:16:00,82.0,0.0,29.88,North,8,2.0,14.0,21,-99.99,,,-99.99,,2013-06-13 14:16:00,
2013-06-13 07:24:00,82.0,0.0,29.88,SE,145,0.0,10.0,20,-99.99,,,-99.99,,2013-06-13 14:24:00,
2013-06-13 07:32:00,82.0,0.0,29.88,South,177,5.0,7.0,21,-99.99,,,-99.99,,2013-06-13 14:32:00,
2013-06-13 07:40:00,82.0,0.0,29.88,South,175,3.0,8.0,23,-99.99,,,-99.99,,2013-06-13 14:40:00,
2013-06-13 07:48:00,83.0,0.0,29.88,South,180,2.0,7.0,20,-99.99,,,-99.99,,2013-06-13 14:48:00,
2013-06-13 07:56:00,83.0,0.0,29.88,South,171,2.0,8.0,21,-99.99,,,-99.99,,2013-06-13 14:56:00,
2013-06-13 08:04:00,83.0,0.0,29.88,SSE,148,9.0,9.0,21,-99.99,,,-99.99,,2013-06-13 15:04:00,
2013-06-13 08:12:00,83.0,0.0,29.88,South,184,0.0,10.0,18,-99.99,,,-99.99,,2013-06-13 15:12:00,
2013-06-13 08:20:00,52.0,0.0,29.88,SSW,209,13.0,22.0,19,-99.99,,,-99.99,,2013-06-13 15:20:00,
2013-06-13 08:28:00,55.0,0.0,29.88,WSW,245,6.0,18.0,16,-99.99,,,-99.99,,2013-06-13 15:28:00,
2013-06-13 08:36:00,52.0,0.0,29.88,SSE,155,5.0,14.0,16,-99.99,,,-99.99,,2013-06-13 15:36:00,
2013-06-13 08:44:00,54.0,0.0,29.88,SSW,199,9.0,14.0,20,-99.99,,,-99.99,,2013-06-13 15:44:00,
2013-06-13 08:52:00,54.0,0.0,29.88,South,191,12.0,18.0,17,-99.99,,,-99.99,,2013-06-13 15:52:00,
2013-06-13 09:00:00,54.0,0.0,29.88,South,171,6.0,18.0,16,-99.99,,,-99.99,,2013-06-13 16:00:00,
2013-06-13 09:08:00,53.0,0.0,29.87,SSE,158,10.0,21.0,13,-99.99,,,-99.99,,2013-06-13 16:08:00,
2013-06-13 09:16:00,55.0,0.0,29.88,SW,215,12.0,17.0,12,-99.99,,,-99.99,,2013-06-13 16:16:00,
2013-06-13 09:24:00,52.0,0.0,29.87,SW,234,13.0,17.0,11,-99.99,,,-99.99,,2013-06-13 16:24:00,
2013-06-13 09:32:00,52.0,0.0,29.87,SW,224,10.0,17.0,13,-99.99,,,-99.99,,2013-06-13 16:32:00,
2013-06-13 09:40:00,53.0,0.0,29.87,SW,218,8.0,17.0,11,-99.99,,,-99.99,,2013-06-13 16:40:00,
2013-06-13 09:48:00,53.0,0.0,29.87,SW,223,12.0,20.0,12,-99.99,,,-99.99,,2013-06-13 16:48:00,
2013-06-13 09:56:00,54.0,0.0,29.87,SW,222,16.0,24.0,11,-99.99,,,-99.99,,2013-06-13 16:56:00,
2013-06-13 10:04:00,54.0,0.0,29.87,SW,225,16.0,24.0,11,-99.99,,,-99.99,,2013-06-13 17:04:00,
2013-06-13 10:12:00,54.0,0.0,29.87,SW,234,13.0,23.0,10,-99.99,,,-99.99,,2013-06-13 17:12:00,
2013-06-13 10:20:00,54.0,0.0,29.87,SSW,201,22.0,24.0,11,-99.99,,,-99.99,,2013-06-13 17:20:00,
2013-06-13 10:28:00,54.0,0.0,29.87,SSW,193,16.0,28.0,12,-99.99,,,-99.99,,2013-06-13 17:28:00,
2013-06-13 10:36:00,55.0,0.0,29.86,South,169,15.0,24.0,13,-99.99,,,-99.99,,2013-06-13 17:36:00,
2013-06-13 10:44:00,55.0,0.0,29.86,South,190,20.0,31.0,10,-99.99,,,-99.99,,2013-06-13 17:44:00,
2013-06-13 10:52:00,55.0,0.0,29.86,SSE,160,21.0,25.0,10,-99.99,,,-99.99,,2013-06-13 17:52:00,
2013-06-13 11:00:00,55.0,0.0,29.86,SSW,206,10.0,28.0,9,-99.99,,,-99.99,,2013-06-13 18:00:00,
2013-06-13 11:08:00,94.0,0.0,29.86,SSW,209,9.0,23.0,11,-99.99,,,-99.99,,2013-06-13 18:08:00,
2013-06-13 11:16:00,94.0,0.0,29.86,South,186,17.0,21.0,13,-99.99,,,-99.99,,2013-06-13 18:16:00,
2013-06-13 11:24:00,94.0,0.0,29.86,SSW,192,12.0,23.0,11,-99.99,,,-99.99,,2013-06-13 18:24:00,
2013-06-13 11:32:00,94.0,0.0,29.85,SSE,159,18.0,26.0,9,-99.99,,,-99.99,,2013-06-13 18:32:00,
2013-06-13 11:40:00,95.0,0.0,29.85,WSW,239,17.0,26.0,8,-99.99,,,-99.99,,2013-06-13 18:40:00,
2013-06-13 11:48:00,95.0,0.0,29.85,SW,217,15.0,24.0,11,-99.99,,,-99.99,,2013-06-13 18:48:00,
2013-06-13 11:56:00,96.0,0.0,29.84,SW,230,12.0,25.0,10,-99.99,,,-99.99,,2013-06-13 18:56:00,
2013-06-13 12:04:00,96.0,0.0,29.84,WSW,242,18.0,25.0,12,-99.99,,,-99.99,,2013-06-13 19:04:00,
2013-06-13 12:12:00,96.0,0.0,29.84,SW,216,16.0,25.0,10,-99.99,,,-99.99,,2013-06-13 19:12:00,
2013-06-13 12:20:00,97.0,0.0,29.84,WSW,244,17.0,26.0,10,-99.99,,,-99.99,,2013-06-13 19:20:00,
2013-06-13 12:28:00,97.0,0.0,29.84,SW,225,15.0,26.0,11,-99.99,,,-99.99,,2013-06-13 19:28:00,
2013-06-13 12:36:00,98.0,0.0,29.83,SSW,213,15.0,25.0,10,-99.99,,,-99.99,,2013-06-13 19:36:00,
2013-06-13 12:44:00,97.0,0.0,29.83,SW,235,20.0,28.0,8,-99.99,,,-99.99,,2013-06-13 19:44:00,
2013-06-13 12:52:00,98.0,0.0,29.83,SW,214,15.0,28.0,10,-99.99,,,-99.99,,2013-06-13 19:52:00,
2013-06-13 13:00:00,98.0,0.0,29.83,WSW,250,20.0,24.0,9,-99.99,,,-99.99,,2013-06-13 20:00:00,
2013-06-13 13:08:00,97.0,0.0,29.82,SSW,210,18.0,25.0,10,-99.99,,,-99.99,,2013-06-13 20:08:00,
2013-06-13 13:16:00,98.0,0.0,29.82,SW,231,13.0,30.0,9,-99.99,,,-99.99,,2013-06-13 20:16:00,
2013-06-13 13:24:00,98.0,0.0,29.82,WSW,250,13.0,28.0,10,-99.99,,,-99.99,,2013-06-13 20:24:00,
2013-06-13 13:32:00,97.0,0.0,29.82,SW,215,21.0,28.0,8,-99.99,,,-99.99,,2013-06-13 20:32:00,
2013-06-13 13:40:00,97.0,0.0,29.82,SW,234,21.0,26.0,9,-99.99,,,-99.99,,2013-06-13 20:40:00,
2013-06-13 13:48:00,97.0,0.0,29.82,SW,234,17.0,26.0,8,-99.99,,,-99.99,,2013-06-13 20:48:00,
2013-06-13 13:56:00,97.0,0.0,29.82,SW,224,10.0,26.0,10,-99.99,,,-99.99,,2013-06-13 20:56:00,
2013-06-13 14:04:00,97.0,0.0,29.82,WSW,245,17.0,30.0,8,-99.99,,,-99.99,,2013-06-13 21:04:00,
2013-06-13 14:12:00,97.0,0.0,29.81,SSW,209,14.0,30.0,10,-99.99,,,-99.99,,2013-06-13 21:12:00,
2013-06-13 14:20:00,97.0,0.0,29.81,WSW,250,23.0,29.0,8,-99.99,,,-99.99,,2013-06-13 21:20:00,
2013-06-13 14:28:00,96.0,0.0,29.80,SW,236,20.0,32.0,8,-99.99,,,-99.99,,2013-06-13 21:28:00,
2013-06-13 14:36:00,97.0,0.0,29.80,SW,230,21.0,32.0,9,-99.99,,,-99.99,,2013-06-13 21:36:00,
2013-06-13 14:44:00,62.0,0.0,29.80,SW,234,24.0,35.0,10,-99.99,,,-99.99,,2013-06-13 21:44:00,
2013-06-13 14:52:00,62.0,0.0,29.79,SW,226,21.0,35.0,8,-99.99,,,-99.99,,2013-06-13 21:52:00,
2013-06-13 15:00:00,62.0,0.0,29.80,SSW,212,21.0,33.0,8,-99.99,,,-99.99,,2013-06-13 22:00:00,
2013-06-13 15:08:00,61.0,0.0,29.79,SSW,208,23.0,33.0,10,-99.99,,,-99.99,,2013-06-13 22:08:00,
2013-06-13 15:16:00,61.0,0.0,29.79,SW,229,21.0,30.0,11,-99.99,,,-99.99,,2013-06-13 22:16:00,
2013-06-13 15:24:00,61.0,0.0,29.79,SW,232,21.0,32.0,10,-99.99,,,-99.99,,2013-06-13 22:24:00,
2013-06-13 15:32:00,60.0,0.0,29.78,SW,234,25.0,32.0,11,-99.99,,,-99.99,,2013-06-13 22:32:00,
2013-06-13 15:40:00,61.0,0.0,29.79,WSW,247,16.0,32.0,8,-99.99,,,-99.99,,2013-06-13 22:40:00,
2013-06-13 15:48:00,60.0,0.0,29.78,West,261,31.0,32.0,10,-99.99,,,-99.99,,2013-06-13 22:48:00,
2013-06-13 15:56:00,59.0,0.0,29.78,WSW,246,21.0,35.0,9,-99.99,,,-99.99,,2013-06-13 22:56:00,
2013-06-13 16:04:00,59.0,0.0,29.78,WSW,249,20.0,35.0,11,-99.99,,,-99.99,,2013-06-13 23:04:00,
2013-06-13 16:12:00,59.0,0.0,29.78,WSW,237,20.0,35.0,12,-99.99,,,-99.99,,2013-06-13 23:12:00,
2013-06-13 16:20:00,59.0,0.0,29.78,WSW,250,26.0,31.0,13,-99.99,,,-99.99,,2013-06-13 23:20:00,
2013-06-13 16:28:00,59.0,0.0,29.78,WSW,246,23.0,32.0,10,-99.99,,,-99.99,,2013-06-13 23:28:00,
2013-06-13 16:36:00,58.0,0.0,29.77,WSW,246,26.0,32.0,12,-99.99,,,-99.99,,2013-06-13 23:36:00,
2013-06-13 16:44:00,58.0,0.0,29.77,SW,233,28.0,31.0,10,-99.99,,,-99.99,,2013-06-13 23:44:00,
2013-06-13 16:52:00,58.0,0.0,29.76,SSW,207,24.0,31.0,11,-99.99,,,-99.99,,2013-06-13 23:52:00,
2013-06-13 17:00:00,58.0,0.0,29.76,WSW,239,25.0,30.0,12,-99.99,,,-99.99,,2013-06-14 00:00:00,
2013-06-13 17:08:00,58.0,0.0,29.76,WSW,255,22.0,30.0,12,-99.99,,,-99.99,,2013-06-14 00:08:00,
2013-06-13 17:16:00,59.0,0.0,29.76,WSW,245,22.0,31.0,10,-99.99,,,-99.99,,2013-06-14 00:16:00,
2013-06-13 17:24:00,59.0,0.0,29.76,WSW,242,30.0,35.0,11,-99.99,,,-99.99,,2013-06-14 00:24:00,
2013-06-13 17:32:00,59.0,0.0,29.75,WSW,249,24.0,35.0,10,-99.99,,,-99.99,,2013-06-14 00:32:00,
2013-06-13 17:40:00,60.0,0.0,29.75,West,266,21.0,28.0,10,-99.99,,,-99.99,,2013-06-14 00:40:00,
2013-06-13 17:48:00,60.0,0.0,29.74,SW,233,25.0,29.0,10,-99.99,,,-99.99,,2013-06-14 00:48:00,
2013-06-13 17:56:00,60.0,0.0,29.74,West,264,25.0,35.0,11,-99.99,,,-99.99,,2013-06-14 00:56:00,
2013-06-13 18:04:00,60.0,0.0,29.75,WSW,257,25.0,35.0,11,-99.99,,,-99.99,,2013-06-14 01:04:00,
2013-06-13 18:12:00,59.0,0.0,29.75,WNW,283,29.0,33.0,12,-99.99,,,-99.99,,2013-06-14 01:12:00,
2013-06-13 18:20:00,58.0,0.0,29.75,West,273,22.0,37.0,11,-99.99,,,-99.99,,2013-06-14 01:20:00,
2013-06-13 18:28:00,58.0,0.0,29.74,WSW,256,30.0,37.0,14,-99.99,,,-99.99,,2013-06-14 01:28:00,
2013-06-13 18:36:00,0.0,0.0,-0.01,North,0,0.0,0.0,0,-99.99,,,-99.99,,2013-06-14 01:36:00,
2013-06-13 18:44:00,57.0,0.0,29.74,West,269,29.0,39.0,14,-99.99,,,-99.99,,2013-06-14 01:44:00,
2013-06-13 18:52:00,0.0,0.0,-0.01,North,0,0.0,0.0,0,-99.99,,,-99.99,,2013-06-14 01:52:00,
2013-06-13 19:00:00,57.0,0.0,29.75,WSW,255,24.0,35.0,12,-99.99,,,-99.99,,2013-06-14 02:00:00,
2013-06-13 19:08:00,57.0,0.0,29.75,WSW,250,23.0,37.0,15,-99.99,,,-99.99,,2013-06-14 02:08:00,
2013-06-13 19:16:00,57.0,0.0,29.75,WSW,258,21.0,31.0,14,-99.99,,,-99.99,,2013-06-14 02:16:00,
2013-06-13 19:24:00,54.0,0.0,29.75,WSW,246,25.0,30.0,12,-99.99,,,-99.99,,2013-06-14 02:24:00,
2013-06-13 19:32:00,54.0,0.0,29.75,WSW,246,25.0,30.0,12,-99.99,,,-99.99,,2013-06-14 02:32:00,
2013-06-13 19:40:00,54.0,0.0,29.75,West,265,21.0,25.0,15,-99.99,,,-99.99,,2013-06-14 02:40:00,
2013-06-13 19:48:00,50.0,0.0,29.75,West,260,18.0,24.0,14,-99.99,,,-99.99,,2013-06-14 02:48:00,
2013-06-13 19:56:00,47.0,0.0,29.76,WSW,239,10.0,23.0,14,-99.99,,,-99.99,,2013-06-14 02:56:00,
2013-06-13 20:04:00,46.0,0.0,29.77,South,189,9.0,18.0,16,-99.99,,,-99.99,,2013-06-14 03:04:00,
2013-06-13 20:12:00,45.0,0.0,29.76,SSE,164,9.0,16.0,12,-99.99,,,-99.99,,2013-06-14 03:12:00,
2013-06-13 20:20:00,41.0,0.0,29.76,SSW,204,15.0,16.0,12,-99.99,,,-99.99,,2013-06-14 03:20:00,
2013-06-13 20:28:00,0.0,0.0,-0.01,North,0,0.0,0.0,0,-99.99,,,-99.99,,2013-06-14 03:28:00,
2013-06-13 20:36:00,40.0,0.0,29.77,SSE,167,12.0,14.0,15,-99.99,,,-99.99,,2013-06-14 03:36:00,
2013-06-13 20:44:00,39.0,0.0,29.77,SSW,207,10.0,16.0,13,-99.99,,,-99.99,,2013-06-14 03:44:00,
2013-06-13 20:52:00,42.0,0.0,29.77,SW,227,14.0,20.0,12,-99.99,,,-99.99,,2013-06-14 03:52:00,
2013-06-13 21:00:00,40.0,0.0,29.77,SSW,212,10.0,18.0,12,-99.99,,,-99.99,,2013-06-14 04:00:00,
2013-06-13 21:04:00,40.0,0.0,29.77,SW,232,12.0,18.0,12,-99.99,,,-99.99,,2013-06-14 04:04:00,
2013-06-13 21:08:00,42.0,0.0,29.77,SSW,207,14.0,17.0,12,-99.99,,,-99.99,,2013-06-14 04:08:00,
2013-06-13 21:12:00,38.0,0.0,29.77,SSW,196,16.0,20.0,14,-99.99,,,-99.99,,2013-06-14 04:12:00,
2013-06-13 21:20:00,38.0,0.0,29.76,SW,218,8.0,20.0,15,-99.99,,,-99.99,,2013-06-14 04:20:00,
2013-06-13 21:28:00,38.0,0.0,29.78,WSW,247,3.0,15.0,12,-99.99,,,-99.99,,2013-06-14 04:28:00,
2013-06-13 21:36:00,37.0,0.0,29.78,SSE,165,18.0,21.0,15,-99.99,,,-99.99,,2013-06-14 04:36:00,
2013-06-13 21:44:00,37.0,0.0,29.79,SSW,199,12.0,21.0,17,-99.99,,,-99.99,,2013-06-14 04:44:00,
2013-06-13 21:52:00,37.0,0.0,29.79,SW,218,7.0,21.0,14,-99.99,,,-99.99,,2013-06-14 04:52:00,
2013-06-13 22:00:00,38.0,0.0,29.79,SW,232,14.0,21.0,15,-99.99,,,-99.99,,2013-06-14 05:00:00,
2013-06-13 22:08:00,37.0,0.0,29.79,WSW,243,12.0,15.0,15,-99.99,,,-99.99,,2013-06-14 05:08:00,
2013-06-13 22:16:00,37.0,0.0,29.79,SW,217,5.0,14.0,15,-99.99,,,-99.99,,2013-06-14 05:16:00,
2013-06-13 22:24:00,37.0,0.0,29.80,SE,144,13.0,16.0,15,-99.99,,,-99.99,,2013-06-14 05:24:00,
2013-06-13 22:32:00,36.0,0.0,29.80,WSW,246,8.0,14.0,17,-99.99,,,-99.99,,2013-06-14 05:32:00,
2013-06-13 22:40:00,36.0,0.0,29.80,SSW,202,5.0,12.0,14,-99.99,,,-99.99,,2013-06-14 05:40:00,
2013-06-13 22:48:00,35.0,0.0,29.81,SSW,198,2.0,7.0,17,-99.99,,,-99.99,,2013-06-14 05:48:00,
2013-06-13 22:56:00,36.0,0.0,29.81,WNW,289,3.0,5.0,18,-99.99,,,-99.99,,2013-06-14 05:56:00,
2013-06-13 23:04:00,33.0,0.0,29.81,SSW,210,5.0,6.0,20,-99.99,,,-99.99,,2013-06-14 06:04:00,
2013-06-13 23:12:00,34.0,0.0,29.81,SW,234,5.0,6.0,19,-99.99,,,-99.99,,2013-06-14 06:12:00,
2013-06-13 23:20:00,33.0,0.0,29.81,NW,310,2.0,8.0,18,-99.99,,,-99.99,,2013-06-14 06:20:00,
2013-06-13 23:28:00,30.0,0.0,29.82,East,101,2.0,7.0,18,-99.99,,,-99.99,,2013-06-14 06:28:00,
2013-06-13 23:36:00,30.0,0.0,29.82,SSE,165,1.0,3.0,20,-99.99,,,-99.99,,2013-06-14 06:36:00,
2013-06-13 23:44:00,29.0,0.0,29.82,North,5,1.0,2.0,20,-99.99,,,-99.99,,2013-06-14 06:44:00,
2013-06-13 23:52:00,28.0,0.0,29.83,SE,133,0.0,5.0,18,-99.99,,,-99.99,,2013-06-14 06:52:00,